sensor_id;sensor_type;location;lat;lon;timestamp;temperature;humidity
24035;DHT22;12242;50.952;4.678;2023-02-22T00:02:03;7.80;99.90
24035;DHT22;12242;50.952;4.678;2023-02-22T00:04:52;7.70;99.90
24035;DHT22;12242;50.952;4.678;2023-02-22T00:07:20;7.60;99.90
24035;DHT22;12242;50.952;4.678;2023-02-22T00:09:49;7.50;99.90
24035;DHT22;12242;50.952;4.678;2023-02-22T00:12:17;7.70;99.90
24035;DHT22;12242;50.952;4.678;2023-02-22T00:14:44;7.70;99.90
24035;DHT22;12242;50.952;4.678;2023-02-22T00:17:11;7.80;99.90
24035;DHT22;12242;50.952;4.678;2023-02-22T00:19:41;7.90;99.90
24035;DHT22;12242;50.952;4.678;2023-02-22T00:22:09;7.90;99.90
24035;DHT22;12242;50.952;4.678;2023-02-22T00:24:38;7.90;99.90
24035;DHT22;12242;50.952;4.678;2023-02-22T00:27:10;8.00;99.90
24035;DHT22;12242;50.952;4.678;2023-02-22T00:29:37;8.00;99.90
24035;DHT22;12242;50.952;4.678;2023-02-22T00:32:07;7.80;99.90
24035;DHT22;12242;50.952;4.678;2023-02-22T00:34:36;7.80;99.90
24035;DHT22;12242;50.952;4.678;2023-02-22T00:37:04;7.80;99.90
24035;DHT22;12242;50.952;4.678;2023-02-22T00:39:33;7.80;99.90
24035;DHT22;12242;50.952;4.678;2023-02-22T00:42:01;8.00;99.90
24035;DHT22;12242;50.952;4.678;2023-02-22T00:44:28;8.10;99.90
24035;DHT22;12242;50.952;4.678;2023-02-22T00:46:55;8.10;99.90
24035;DHT22;12242;50.952;4.678;2023-02-22T00:49:23;8.20;99.90
24035;DHT22;12242;50.952;4.678;2023-02-22T00:51:54;8.10;99.90
24035;DHT22;12242;50.952;4.678;2023-02-22T00:54:24;8.20;99.90
24035;DHT22;12242;50.952;4.678;2023-02-22T00:56:56;8.00;99.90
24035;DHT22;12242;50.952;4.678;2023-02-22T00:59:24;7.90;99.90
24035;DHT22;12242;50.952;4.678;2023-02-22T01:01:54;8.00;99.90
24035;DHT22;12242;50.952;4.678;2023-02-22T01:04:21;7.90;99.90
24035;DHT22;12242;50.952;4.678;2023-02-22T01:06:54;7.70;99.90
24035;DHT22;12242;50.952;4.678;2023-02-22T01:09:21;7.70;99.90
24035;DHT22;12242;50.952;4.678;2023-02-22T01:11:52;7.60;99.90
24035;DHT22;12242;50.952;4.678;2023-02-22T01:14:24;7.80;99.90
24035;DHT22;12242;50.952;4.678;2023-02-22T01:16:53;7.90;99.90
24035;DHT22;12242;50.952;4.678;2023-02-22T01:19:22;8.00;99.90
24035;DHT22;12242;50.952;4.678;2023-02-22T01:21:51;8.00;99.90
24035;DHT22;12242;50.952;4.678;2023-02-22T01:24:23;8.00;99.90
24035;DHT22;12242;50.952;4.678;2023-02-22T01:26:51;7.80;99.90
24035;DHT22;12242;50.952;4.678;2023-02-22T01:29:18;7.70;99.90
24035;DHT22;12242;50.952;4.678;2023-02-22T01:31:52;7.70;99.90
24035;DHT22;12242;50.952;4.678;2023-02-22T01:34:20;7.70;99.90
24035;DHT22;12242;50.952;4.678;2023-02-22T01:36:48;7.80;99.90
24035;DHT22;12242;50.952;4.678;2023-02-22T01:39:16;7.80;99.90
24035;DHT22;12242;50.952;4.678;2023-02-22T01:41:44;7.80;99.90
24035;DHT22;12242;50.952;4.678;2023-02-22T01:44:36;7.70;99.90
24035;DHT22;12242;50.952;4.678;2023-02-22T01:47:05;7.90;99.90
24035;DHT22;12242;50.952;4.678;2023-02-22T01:49:43;7.70;99.90
24035;DHT22;12242;50.952;4.678;2023-02-22T01:52:18;7.40;99.90
24035;DHT22;12242;50.952;4.678;2023-02-22T01:54:56;7.30;99.90
24035;DHT22;12242;50.952;4.678;2023-02-22T01:57:32;7.10;99.90
24035;DHT22;12242;50.952;4.678;2023-02-22T02:00:06;7.20;99.90
24035;DHT22;12242;50.952;4.678;2023-02-22T02:02:43;7.40;99.90
24035;DHT22;12242;50.952;4.678;2023-02-22T02:05:12;7.20;99.90
24035;DHT22;12242;50.952;4.678;2023-02-22T02:07:39;7.30;99.90
24035;DHT22;12242;50.952;4.678;2023-02-22T02:10:12;7.50;99.90
24035;DHT22;12242;50.952;4.678;2023-02-22T02:12:48;7.40;99.90
24035;DHT22;12242;50.952;4.678;2023-02-22T02:17:47;7.40;99.90
24035;DHT22;12242;50.952;4.678;2023-02-22T02:20:43;7.30;99.90
24035;DHT22;12242;50.952;4.678;2023-02-22T02:34:56;7.10;99.90
24035;DHT22;12242;50.952;4.678;2023-02-22T02:37:27;7.10;99.90
24035;DHT22;12242;50.952;4.678;2023-02-22T02:42:49;7.20;99.90
24035;DHT22;12242;50.952;4.678;2023-02-22T02:45:24;7.20;99.90
24035;DHT22;12242;50.952;4.678;2023-02-22T02:47:58;7.10;99.90
24035;DHT22;12242;50.952;4.678;2023-02-22T02:50:41;7.10;99.90
24035;DHT22;12242;50.952;4.678;2023-02-22T02:53:10;7.20;99.90
24035;DHT22;12242;50.952;4.678;2023-02-22T02:55:39;7.10;99.90
24035;DHT22;12242;50.952;4.678;2023-02-22T02:58:07;7.00;99.90
24035;DHT22;12242;50.952;4.678;2023-02-22T03:00:38;6.90;99.90
24035;DHT22;12242;50.952;4.678;2023-02-22T03:15:32;6.70;99.90
24035;DHT22;12242;50.952;4.678;2023-02-22T03:20:43;6.60;99.90
24035;DHT22;12242;50.952;4.678;2023-02-22T03:23:43;6.70;99.90
24035;DHT22;12242;50.952;4.678;2023-02-22T03:26:16;6.70;99.90
24035;DHT22;12242;50.952;4.678;2023-02-22T03:28:51;6.70;99.90
24035;DHT22;12242;50.952;4.678;2023-02-22T03:31:27;6.70;99.90
24035;DHT22;12242;50.952;4.678;2023-02-22T03:34:01;6.60;99.90
24035;DHT22;12242;50.952;4.678;2023-02-22T03:36:38;6.50;99.90
24035;DHT22;12242;50.952;4.678;2023-02-22T03:39:13;6.40;99.90
24035;DHT22;12242;50.952;4.678;2023-02-22T03:41:49;6.30;99.90
24035;DHT22;12242;50.952;4.678;2023-02-22T03:44:23;6.30;99.90
24035;DHT22;12242;50.952;4.678;2023-02-22T03:46:54;6.40;99.90
24035;DHT22;12242;50.952;4.678;2023-02-22T03:49:25;6.50;99.90
24035;DHT22;12242;50.952;4.678;2023-02-22T03:51:55;6.50;99.90
24035;DHT22;12242;50.952;4.678;2023-02-22T03:54:23;6.50;99.90
24035;DHT22;12242;50.952;4.678;2023-02-22T03:56:57;6.50;99.90
24035;DHT22;12242;50.952;4.678;2023-02-22T03:59:26;6.50;99.90
24035;DHT22;12242;50.952;4.678;2023-02-22T04:01:56;6.40;99.90
24035;DHT22;12242;50.952;4.678;2023-02-22T04:04:24;6.30;99.90
24035;DHT22;12242;50.952;4.678;2023-02-22T04:06:54;6.20;99.90
24035;DHT22;12242;50.952;4.678;2023-02-22T04:09:24;6.20;99.90
24035;DHT22;12242;50.952;4.678;2023-02-22T04:11:53;6.10;99.90
24035;DHT22;12242;50.952;4.678;2023-02-22T04:14:21;6.10;99.90
24035;DHT22;12242;50.952;4.678;2023-02-22T04:16:49;6.10;99.90
24035;DHT22;12242;50.952;4.678;2023-02-22T04:19:17;6.20;99.90
24035;DHT22;12242;50.952;4.678;2023-02-22T04:21:44;6.20;99.90
24035;DHT22;12242;50.952;4.678;2023-02-22T04:24:11;6.40;99.90
24035;DHT22;12242;50.952;4.678;2023-02-22T04:26:39;6.40;99.90
24035;DHT22;12242;50.952;4.678;2023-02-22T04:29:06;6.40;99.90
24035;DHT22;12242;50.952;4.678;2023-02-22T04:31:34;6.50;99.90
24035;DHT22;12242;50.952;4.678;2023-02-22T04:34:02;6.50;99.90
24035;DHT22;12242;50.952;4.678;2023-02-22T04:36:29;6.30;99.90
24035;DHT22;12242;50.952;4.678;2023-02-22T04:39:00;6.20;99.90
24035;DHT22;12242;50.952;4.678;2023-02-22T04:41:27;6.00;99.90
24035;DHT22;12242;50.952;4.678;2023-02-22T04:43:54;6.00;99.90
24035;DHT22;12242;50.952;4.678;2023-02-22T04:46:22;6.00;99.90
24035;DHT22;12242;50.952;4.678;2023-02-22T04:48:52;6.10;99.90
24035;DHT22;12242;50.952;4.678;2023-02-22T04:51:20;6.10;99.90
24035;DHT22;12242;50.952;4.678;2023-02-22T04:53:47;6.00;99.90
24035;DHT22;12242;50.952;4.678;2023-02-22T04:56:19;6.00;99.90
24035;DHT22;12242;50.952;4.678;2023-02-22T04:58:46;6.00;99.90
24035;DHT22;12242;50.952;4.678;2023-02-22T05:01:14;6.10;99.90
24035;DHT22;12242;50.952;4.678;2023-02-22T05:03:42;6.20;99.90
24035;DHT22;12242;50.952;4.678;2023-02-22T05:06:12;6.10;99.90
24035;DHT22;12242;50.952;4.678;2023-02-22T05:08:42;6.00;99.90
24035;DHT22;12242;50.952;4.678;2023-02-22T05:11:09;5.90;99.90
24035;DHT22;12242;50.952;4.678;2023-02-22T05:13:39;5.70;99.90
24035;DHT22;12242;50.952;4.678;2023-02-22T05:16:08;5.80;99.90
24035;DHT22;12242;50.952;4.678;2023-02-22T05:18:38;5.80;99.90
24035;DHT22;12242;50.952;4.678;2023-02-22T05:21:05;5.90;99.90
24035;DHT22;12242;50.952;4.678;2023-02-22T05:23:33;6.00;99.90
24035;DHT22;12242;50.952;4.678;2023-02-22T05:26:02;6.10;99.90
24035;DHT22;12242;50.952;4.678;2023-02-22T05:28:32;6.10;99.90
24035;DHT22;12242;50.952;4.678;2023-02-22T05:31:02;6.20;99.90
24035;DHT22;12242;50.952;4.678;2023-02-22T05:33:32;6.20;99.90
24035;DHT22;12242;50.952;4.678;2023-02-22T05:35:59;6.10;99.90
24035;DHT22;12242;50.952;4.678;2023-02-22T05:38:26;6.30;99.90
24035;DHT22;12242;50.952;4.678;2023-02-22T05:40:53;6.30;99.90
24035;DHT22;12242;50.952;4.678;2023-02-22T05:43:21;6.20;99.90
24035;DHT22;12242;50.952;4.678;2023-02-22T05:45:50;6.10;99.90
24035;DHT22;12242;50.952;4.678;2023-02-22T05:48:20;6.00;99.90
24035;DHT22;12242;50.952;4.678;2023-02-22T05:50:51;6.00;99.90
24035;DHT22;12242;50.952;4.678;2023-02-22T05:53:18;5.90;99.90
24035;DHT22;12242;50.952;4.678;2023-02-22T05:55:50;6.00;99.90
24035;DHT22;12242;50.952;4.678;2023-02-22T05:58:17;6.00;99.90
24035;DHT22;12242;50.952;4.678;2023-02-22T06:00:45;6.00;99.90
24035;DHT22;12242;50.952;4.678;2023-02-22T06:03:12;6.10;99.90
24035;DHT22;12242;50.952;4.678;2023-02-22T06:05:41;6.20;99.90
24035;DHT22;12242;50.952;4.678;2023-02-22T06:08:11;6.20;99.90
24035;DHT22;12242;50.952;4.678;2023-02-22T06:10:38;6.30;99.90
24035;DHT22;12242;50.952;4.678;2023-02-22T06:13:06;6.30;99.90
24035;DHT22;12242;50.952;4.678;2023-02-22T06:15:33;6.30;99.90
24035;DHT22;12242;50.952;4.678;2023-02-22T06:18:01;6.40;99.90
24035;DHT22;12242;50.952;4.678;2023-02-22T06:20:31;6.50;99.90
24035;DHT22;12242;50.952;4.678;2023-02-22T06:23:01;6.50;99.90
24035;DHT22;12242;50.952;4.678;2023-02-22T06:25:30;6.60;99.90
24035;DHT22;12242;50.952;4.678;2023-02-22T06:27:58;6.70;99.90
24035;DHT22;12242;50.952;4.678;2023-02-22T06:30:27;6.70;99.90
24035;DHT22;12242;50.952;4.678;2023-02-22T06:32:54;6.70;99.90
24035;DHT22;12242;50.952;4.678;2023-02-22T06:35:22;6.50;99.90
24035;DHT22;12242;50.952;4.678;2023-02-22T06:37:51;6.20;99.90
24035;DHT22;12242;50.952;4.678;2023-02-22T06:40:19;5.90;99.90
24035;DHT22;12242;50.952;4.678;2023-02-22T06:42:51;5.80;99.90
24035;DHT22;12242;50.952;4.678;2023-02-22T06:45:19;5.80;99.90
24035;DHT22;12242;50.952;4.678;2023-02-22T06:47:49;5.90;99.90
24035;DHT22;12242;50.952;4.678;2023-02-22T06:50:24;6.10;99.90
24035;DHT22;12242;50.952;4.678;2023-02-22T06:52:52;6.30;99.90
24035;DHT22;12242;50.952;4.678;2023-02-22T06:55:24;6.20;99.90
24035;DHT22;12242;50.952;4.678;2023-02-22T06:57:54;6.10;99.90
24035;DHT22;12242;50.952;4.678;2023-02-22T07:00:27;6.00;99.90
24035;DHT22;12242;50.952;4.678;2023-02-22T07:02:55;6.20;99.90
24035;DHT22;12242;50.952;4.678;2023-02-22T07:05:26;6.40;99.90
24035;DHT22;12242;50.952;4.678;2023-02-22T07:08:04;6.50;99.90
24035;DHT22;12242;50.952;4.678;2023-02-22T07:10:33;6.50;99.90
24035;DHT22;12242;50.952;4.678;2023-02-22T07:13:01;6.60;99.90
24035;DHT22;12242;50.952;4.678;2023-02-22T07:15:29;6.40;99.90
24035;DHT22;12242;50.952;4.678;2023-02-22T07:17:57;6.60;99.90
24035;DHT22;12242;50.952;4.678;2023-02-22T07:20:29;6.70;99.90
24035;DHT22;12242;50.952;4.678;2023-02-22T07:23:01;6.60;99.90
24035;DHT22;12242;50.952;4.678;2023-02-22T07:25:30;6.80;99.90
24035;DHT22;12242;50.952;4.678;2023-02-22T07:28:02;6.70;99.90
24035;DHT22;12242;50.952;4.678;2023-02-22T07:30:31;6.60;99.90
24035;DHT22;12242;50.952;4.678;2023-02-22T07:33:05;6.70;99.90
24035;DHT22;12242;50.952;4.678;2023-02-22T07:35:38;6.60;99.90
24035;DHT22;12242;50.952;4.678;2023-02-22T07:38:09;6.50;99.90
24035;DHT22;12242;50.952;4.678;2023-02-22T07:40:40;6.40;99.90
24035;DHT22;12242;50.952;4.678;2023-02-22T07:43:22;6.70;99.90
24035;DHT22;12242;50.952;4.678;2023-02-22T07:45:51;7.00;99.90
24035;DHT22;12242;50.952;4.678;2023-02-22T08:23:55;9.00;99.90
24035;DHT22;12242;50.952;4.678;2023-02-22T08:26:23;9.20;99.90
24035;DHT22;12242;50.952;4.678;2023-02-22T08:28:51;9.10;99.90
24035;DHT22;12242;50.952;4.678;2023-02-22T08:31:19;9.20;99.90
24035;DHT22;12242;50.952;4.678;2023-02-22T08:33:48;9.40;99.90
24035;DHT22;12242;50.952;4.678;2023-02-22T08:36:16;9.50;99.90
24035;DHT22;12242;50.952;4.678;2023-02-22T08:38:44;9.60;99.90
24035;DHT22;12242;50.952;4.678;2023-02-22T08:41:13;9.90;99.90
24035;DHT22;12242;50.952;4.678;2023-02-22T08:43:41;10.10;99.90
24035;DHT22;12242;50.952;4.678;2023-02-22T08:46:09;10.20;99.90
24035;DHT22;12242;50.952;4.678;2023-02-22T08:48:36;10.20;99.90
24035;DHT22;12242;50.952;4.678;2023-02-22T08:51:04;10.20;99.90
24035;DHT22;12242;50.952;4.678;2023-02-22T08:53:32;10.30;99.90
24035;DHT22;12242;50.952;4.678;2023-02-22T08:56:00;10.60;99.90
24035;DHT22;12242;50.952;4.678;2023-02-22T08:58:28;10.70;99.90
24035;DHT22;12242;50.952;4.678;2023-02-22T09:00:55;11.10;99.90
24035;DHT22;12242;50.952;4.678;2023-02-22T09:03:23;11.70;99.90
24035;DHT22;12242;50.952;4.678;2023-02-22T09:05:51;12.10;99.90
24035;DHT22;12242;50.952;4.678;2023-02-22T09:08:19;12.50;99.90
24035;DHT22;12242;50.952;4.678;2023-02-22T09:10:49;12.80;99.90
24035;DHT22;12242;50.952;4.678;2023-02-22T09:13:16;13.00;99.90
24035;DHT22;12242;50.952;4.678;2023-02-22T09:15:44;12.90;99.90
24035;DHT22;12242;50.952;4.678;2023-02-22T09:18:13;13.10;99.90
24035;DHT22;12242;50.952;4.678;2023-02-22T09:20:41;12.90;99.90
24035;DHT22;12242;50.952;4.678;2023-02-22T09:23:09;13.00;99.90
24035;DHT22;12242;50.952;4.678;2023-02-22T09:25:37;13.00;99.90
24035;DHT22;12242;50.952;4.678;2023-02-22T09:28:07;13.00;99.90
24035;DHT22;12242;50.952;4.678;2023-02-22T09:30:36;12.50;99.90
24035;DHT22;12242;50.952;4.678;2023-02-22T09:33:09;12.20;99.90
24035;DHT22;12242;50.952;4.678;2023-02-22T09:35:39;12.10;99.90
24035;DHT22;12242;50.952;4.678;2023-02-22T09:38:15;12.00;99.90
24035;DHT22;12242;50.952;4.678;2023-02-22T09:40:51;11.60;99.90
24035;DHT22;12242;50.952;4.678;2023-02-22T09:43:33;11.50;99.90
24035;DHT22;12242;50.952;4.678;2023-02-22T09:46:22;11.60;99.90
24035;DHT22;12242;50.952;4.678;2023-02-22T09:51:57;11.60;99.90
24035;DHT22;12242;50.952;4.678;2023-02-22T09:54:37;11.70;99.90
24035;DHT22;12242;50.952;4.678;2023-02-22T09:57:11;11.70;99.90
24035;DHT22;12242;50.952;4.678;2023-02-22T10:03:23;11.80;99.90
24035;DHT22;12242;50.952;4.678;2023-02-22T10:05:58;11.80;99.90
24035;DHT22;12242;50.952;4.678;2023-02-22T10:08:30;11.40;99.90
24035;DHT22;12242;50.952;4.678;2023-02-22T10:17:19;10.80;99.90
24035;DHT22;12242;50.952;4.678;2023-02-22T10:22:56;10.90;99.90
24035;DHT22;12242;50.952;4.678;2023-02-22T10:25:30;10.80;99.90
24035;DHT22;12242;50.952;4.678;2023-02-22T10:32:00;10.90;99.90
24035;DHT22;12242;50.952;4.678;2023-02-22T10:34:40;10.80;99.90
24035;DHT22;12242;50.952;4.678;2023-02-22T10:39:50;10.80;99.90
24035;DHT22;12242;50.952;4.678;2023-02-22T10:42:24;10.50;99.90
24035;DHT22;12242;50.952;4.678;2023-02-22T10:44:52;10.50;99.90
24035;DHT22;12242;50.952;4.678;2023-02-22T10:47:20;10.50;99.90
24035;DHT22;12242;50.952;4.678;2023-02-22T10:49:56;10.60;99.90
24035;DHT22;12242;50.952;4.678;2023-02-22T10:52:36;10.60;99.90
24035;DHT22;12242;50.952;4.678;2023-02-22T10:55:21;10.70;99.90
24035;DHT22;12242;50.952;4.678;2023-02-22T10:58:05;10.80;99.90
24035;DHT22;12242;50.952;4.678;2023-02-22T11:00:39;10.70;99.90
24035;DHT22;12242;50.952;4.678;2023-02-22T11:03:21;10.70;99.90
24035;DHT22;12242;50.952;4.678;2023-02-22T11:05:49;10.80;99.90
24035;DHT22;12242;50.952;4.678;2023-02-22T11:10:52;11.30;99.90
24035;DHT22;12242;50.952;4.678;2023-02-22T11:13:38;11.40;99.90
24035;DHT22;12242;50.952;4.678;2023-02-22T11:16:24;11.80;99.90
24035;DHT22;12242;50.952;4.678;2023-02-22T11:19:17;12.00;99.90
24035;DHT22;12242;50.952;4.678;2023-02-22T11:21:48;12.20;99.90
24035;DHT22;12242;50.952;4.678;2023-02-22T11:24:19;12.50;99.90
24035;DHT22;12242;50.952;4.678;2023-02-22T11:26:55;12.60;99.90
24035;DHT22;12242;50.952;4.678;2023-02-22T11:29:33;12.70;99.90
24035;DHT22;12242;50.952;4.678;2023-02-22T11:32:15;12.70;99.90
24035;DHT22;12242;50.952;4.678;2023-02-22T11:34:48;12.90;99.90
24035;DHT22;12242;50.952;4.678;2023-02-22T11:37:34;13.10;99.90
24035;DHT22;12242;50.952;4.678;2023-02-22T11:40:13;13.30;99.90
24035;DHT22;12242;50.952;4.678;2023-02-22T11:43:13;13.50;99.90
24035;DHT22;12242;50.952;4.678;2023-02-22T11:45:58;13.70;99.90
24035;DHT22;12242;50.952;4.678;2023-02-22T11:48:41;13.60;99.90
24035;DHT22;12242;50.952;4.678;2023-02-22T12:01:00;13.50;99.90
24035;DHT22;12242;50.952;4.678;2023-02-22T12:18:25;13.70;99.90
24035;DHT22;12242;50.952;4.678;2023-02-22T12:21:02;13.50;99.90
24035;DHT22;12242;50.952;4.678;2023-02-22T12:26:17;13.30;99.90
24035;DHT22;12242;50.952;4.678;2023-02-22T12:28:54;13.30;99.90
24035;DHT22;12242;50.952;4.678;2023-02-22T12:31:49;13.60;99.90
24035;DHT22;12242;50.952;4.678;2023-02-22T12:35:15;13.90;99.90
24035;DHT22;12242;50.952;4.678;2023-02-22T12:37:21;14.00;99.90
24035;DHT22;12242;50.952;4.678;2023-02-22T12:40:03;14.10;99.90
24035;DHT22;12242;50.952;4.678;2023-02-22T12:42:56;14.10;99.90
24035;DHT22;12242;50.952;4.678;2023-02-22T12:51:00;14.40;99.90
24035;DHT22;12242;50.952;4.678;2023-02-22T12:53:34;14.60;99.90
24035;DHT22;12242;50.952;4.678;2023-02-22T12:56:21;14.20;99.90
24035;DHT22;12242;50.952;4.678;2023-02-22T12:59:09;14.20;99.90
24035;DHT22;12242;50.952;4.678;2023-02-22T13:01:46;14.00;99.90
24035;DHT22;12242;50.952;4.678;2023-02-22T13:04:17;14.00;99.90
24035;DHT22;12242;50.952;4.678;2023-02-22T13:09:46;14.00;99.90
24035;DHT22;12242;50.952;4.678;2023-02-22T13:13:21;14.00;99.90
24035;DHT22;12242;50.952;4.678;2023-02-22T13:21:33;14.10;99.90
24035;DHT22;12242;50.952;4.678;2023-02-22T13:27:05;14.20;99.90
24035;DHT22;12242;50.952;4.678;2023-02-22T13:29:38;14.00;99.90
24035;DHT22;12242;50.952;4.678;2023-02-22T13:32:15;13.80;99.90
24035;DHT22;12242;50.952;4.678;2023-02-22T13:35:18;13.80;99.90
24035;DHT22;12242;50.952;4.678;2023-02-22T13:41:21;13.80;99.90
24035;DHT22;12242;50.952;4.678;2023-02-22T13:44:23;13.80;99.90
24035;DHT22;12242;50.952;4.678;2023-02-22T13:52:50;13.90;99.90
24035;DHT22;12242;50.952;4.678;2023-02-22T13:55:26;14.10;99.90
24035;DHT22;12242;50.952;4.678;2023-02-22T13:58:02;13.90;99.90
24035;DHT22;12242;50.952;4.678;2023-02-22T14:16:28;13.60;99.90
24035;DHT22;12242;50.952;4.678;2023-02-22T14:19:10;13.50;99.90
24035;DHT22;12242;50.952;4.678;2023-02-22T14:22:00;13.40;99.90
24035;DHT22;12242;50.952;4.678;2023-02-22T14:24:42;13.20;99.90
24035;DHT22;12242;50.952;4.678;2023-02-22T14:27:11;13.20;99.90
24035;DHT22;12242;50.952;4.678;2023-02-22T14:29:52;13.10;99.90
24035;DHT22;12242;50.952;4.678;2023-02-22T14:32:30;13.10;99.90
24035;DHT22;12242;50.952;4.678;2023-02-22T14:35:04;13.00;99.90
24035;DHT22;12242;50.952;4.678;2023-02-22T14:37:56;12.90;99.90
24035;DHT22;12242;50.952;4.678;2023-02-22T14:40:30;13.00;99.90
24035;DHT22;12242;50.952;4.678;2023-02-22T14:43:18;12.90;99.90
24035;DHT22;12242;50.952;4.678;2023-02-22T14:45:55;12.80;99.90
24035;DHT22;12242;50.952;4.678;2023-02-22T14:48:36;12.70;99.90
24035;DHT22;12242;50.952;4.678;2023-02-22T14:51:13;12.80;99.90
24035;DHT22;12242;50.952;4.678;2023-02-22T14:53:56;12.80;99.90
24035;DHT22;12242;50.952;4.678;2023-02-22T14:56:33;12.80;99.90
24035;DHT22;12242;50.952;4.678;2023-02-22T14:59:17;12.70;99.90
24035;DHT22;12242;50.952;4.678;2023-02-22T15:01:45;12.80;99.90
24035;DHT22;12242;50.952;4.678;2023-02-22T15:04:33;12.80;99.90
24035;DHT22;12242;50.952;4.678;2023-02-22T15:07:20;12.80;99.90
24035;DHT22;12242;50.952;4.678;2023-02-22T15:09:48;12.80;99.90
24035;DHT22;12242;50.952;4.678;2023-02-22T15:12:25;12.80;99.90
24035;DHT22;12242;50.952;4.678;2023-02-22T15:15:31;12.60;99.90
24035;DHT22;12242;50.952;4.678;2023-02-22T15:17:58;12.60;99.90
24035;DHT22;12242;50.952;4.678;2023-02-22T15:20:27;12.50;99.90
24035;DHT22;12242;50.952;4.678;2023-02-22T15:22:58;12.50;99.90
24035;DHT22;12242;50.952;4.678;2023-02-22T15:25:28;12.50;99.90
24035;DHT22;12242;50.952;4.678;2023-02-22T15:28:02;12.60;99.90
24035;DHT22;12242;50.952;4.678;2023-02-22T15:30:31;12.50;99.90
24035;DHT22;12242;50.952;4.678;2023-02-22T15:33:17;12.50;99.90
24035;DHT22;12242;50.952;4.678;2023-02-22T15:35:54;12.60;99.90
24035;DHT22;12242;50.952;4.678;2023-02-22T15:38:29;12.50;99.90
24035;DHT22;12242;50.952;4.678;2023-02-22T15:41:04;12.60;99.90
24035;DHT22;12242;50.952;4.678;2023-02-22T15:43:34;12.50;99.90
24035;DHT22;12242;50.952;4.678;2023-02-22T15:46:10;12.50;99.90
24035;DHT22;12242;50.952;4.678;2023-02-22T15:48:38;12.60;99.90
24035;DHT22;12242;50.952;4.678;2023-02-22T15:51:12;12.50;99.90
24035;DHT22;12242;50.952;4.678;2023-02-22T15:53:47;12.50;99.90
24035;DHT22;12242;50.952;4.678;2023-02-22T15:56:23;12.50;99.90
24035;DHT22;12242;50.952;4.678;2023-02-22T15:58:58;12.50;99.90
24035;DHT22;12242;50.952;4.678;2023-02-22T16:01:27;12.50;99.90
24035;DHT22;12242;50.952;4.678;2023-02-22T16:03:58;12.50;99.90
24035;DHT22;12242;50.952;4.678;2023-02-22T16:06:32;12.40;99.90
24035;DHT22;12242;50.952;4.678;2023-02-22T16:09:21;12.30;99.90
24035;DHT22;12242;50.952;4.678;2023-02-22T16:12:10;12.30;99.90
24035;DHT22;12242;50.952;4.678;2023-02-22T16:14:49;12.30;99.90
24035;DHT22;12242;50.952;4.678;2023-02-22T16:17:34;12.50;99.90
24035;DHT22;12242;50.952;4.678;2023-02-22T16:22:40;12.20;99.90
24035;DHT22;12242;50.952;4.678;2023-02-22T16:27:53;11.80;99.90
24035;DHT22;12242;50.952;4.678;2023-02-22T16:30:34;11.70;99.90
24035;DHT22;12242;50.952;4.678;2023-02-22T16:33:07;11.60;99.90
24035;DHT22;12242;50.952;4.678;2023-02-22T16:35:40;11.70;99.90
24035;DHT22;12242;50.952;4.678;2023-02-22T16:38:18;11.70;99.90
24035;DHT22;12242;50.952;4.678;2023-02-22T16:40:52;11.70;99.90
24035;DHT22;12242;50.952;4.678;2023-02-22T16:43:29;11.70;99.90
24035;DHT22;12242;50.952;4.678;2023-02-22T16:46:00;11.60;99.90
24035;DHT22;12242;50.952;4.678;2023-02-22T16:48:30;11.60;99.90
24035;DHT22;12242;50.952;4.678;2023-02-22T16:51:43;11.50;99.90
24035;DHT22;12242;50.952;4.678;2023-02-22T16:53:53;11.40;99.90
24035;DHT22;12242;50.952;4.678;2023-02-22T16:56:27;11.30;99.90
24035;DHT22;12242;50.952;4.678;2023-02-22T16:59:00;11.30;99.90
24035;DHT22;12242;50.952;4.678;2023-02-22T17:01:29;11.20;99.90
24035;DHT22;12242;50.952;4.678;2023-02-22T17:03:56;11.10;99.90
24035;DHT22;12242;50.952;4.678;2023-02-22T17:06:24;11.20;99.90
24035;DHT22;12242;50.952;4.678;2023-02-22T17:08:52;11.20;99.90
24035;DHT22;12242;50.952;4.678;2023-02-22T17:11:20;11.20;99.90
24035;DHT22;12242;50.952;4.678;2023-02-22T17:13:49;11.20;99.90
24035;DHT22;12242;50.952;4.678;2023-02-22T17:16:17;11.30;99.90
24035;DHT22;12242;50.952;4.678;2023-02-22T17:18:46;11.30;99.90
24035;DHT22;12242;50.952;4.678;2023-02-22T17:21:16;11.20;99.90
24035;DHT22;12242;50.952;4.678;2023-02-22T17:23:43;11.20;99.90
24035;DHT22;12242;50.952;4.678;2023-02-22T17:26:13;11.20;99.90
24035;DHT22;12242;50.952;4.678;2023-02-22T17:28:42;11.20;99.90
24035;DHT22;12242;50.952;4.678;2023-02-22T17:31:18;11.20;99.90
24035;DHT22;12242;50.952;4.678;2023-02-22T17:33:47;11.30;99.90
24035;DHT22;12242;50.952;4.678;2023-02-22T17:36:14;11.30;99.90
24035;DHT22;12242;50.952;4.678;2023-02-22T17:38:43;11.20;99.90
24035;DHT22;12242;50.952;4.678;2023-02-22T17:41:11;11.40;99.90
24035;DHT22;12242;50.952;4.678;2023-02-22T17:43:39;11.40;99.90
24035;DHT22;12242;50.952;4.678;2023-02-22T17:46:07;11.50;99.90
24035;DHT22;12242;50.952;4.678;2023-02-22T17:48:35;11.60;99.90
24035;DHT22;12242;50.952;4.678;2023-02-22T17:51:09;11.60;99.90
24035;DHT22;12242;50.952;4.678;2023-02-22T17:53:37;11.50;99.90
24035;DHT22;12242;50.952;4.678;2023-02-22T17:56:10;11.40;99.90
24035;DHT22;12242;50.952;4.678;2023-02-22T17:58:40;11.30;99.90
24035;DHT22;12242;50.952;4.678;2023-02-22T18:01:28;11.30;99.90
24035;DHT22;12242;50.952;4.678;2023-02-22T18:03:58;11.40;99.90
24035;DHT22;12242;50.952;4.678;2023-02-22T18:06:28;11.60;99.90
24035;DHT22;12242;50.952;4.678;2023-02-22T18:08:57;11.60;99.90
24035;DHT22;12242;50.952;4.678;2023-02-22T18:11:27;11.50;99.90
24035;DHT22;12242;50.952;4.678;2023-02-22T18:14:01;11.40;99.90
24035;DHT22;12242;50.952;4.678;2023-02-22T18:16:32;11.30;99.90
24035;DHT22;12242;50.952;4.678;2023-02-22T18:19:00;11.40;99.90
24035;DHT22;12242;50.952;4.678;2023-02-22T18:21:29;11.40;99.90
24035;DHT22;12242;50.952;4.678;2023-02-22T18:23:58;11.40;99.90
24035;DHT22;12242;50.952;4.678;2023-02-22T18:26:26;11.50;99.90
24035;DHT22;12242;50.952;4.678;2023-02-22T18:28:55;11.60;99.90
24035;DHT22;12242;50.952;4.678;2023-02-22T18:31:23;11.70;99.90
24035;DHT22;12242;50.952;4.678;2023-02-22T18:33:51;11.80;99.90
24035;DHT22;12242;50.952;4.678;2023-02-22T18:36:20;11.70;99.90
24035;DHT22;12242;50.952;4.678;2023-02-22T18:38:53;11.60;99.90
24035;DHT22;12242;50.952;4.678;2023-02-22T18:41:22;11.60;99.90
24035;DHT22;12242;50.952;4.678;2023-02-22T18:43:55;11.70;99.90
24035;DHT22;12242;50.952;4.678;2023-02-22T18:46:26;11.60;99.90
24035;DHT22;12242;50.952;4.678;2023-02-22T18:48:57;11.60;99.90
24035;DHT22;12242;50.952;4.678;2023-02-22T18:51:27;11.30;99.90
24035;DHT22;12242;50.952;4.678;2023-02-22T18:53:57;11.30;99.90
24035;DHT22;12242;50.952;4.678;2023-02-22T18:56:28;11.30;99.90
24035;DHT22;12242;50.952;4.678;2023-02-22T18:58:59;11.20;99.90
24035;DHT22;12242;50.952;4.678;2023-02-22T19:01:28;11.20;99.90